sensor_id;sensor_type;location;lat;lon;timestamp;temperature;humidity
70807;DHT22;58882;52.170;5.386;2022-11-15T00:00:06;15.20;50.70
70807;DHT22;58882;52.170;5.386;2022-11-15T00:03:05;15.30;50.90
70807;DHT22;58882;52.170;5.386;2022-11-15T00:06:18;15.20;51.00
70807;DHT22;58882;52.170;5.386;2022-11-15T00:09:09;15.20;51.10
70807;DHT22;58882;52.170;5.386;2022-11-15T00:12:21;15.20;51.00
70807;DHT22;58882;52.170;5.386;2022-11-15T00:15:13;15.30;51.20
70807;DHT22;58882;52.170;5.386;2022-11-15T00:18:26;15.30;51.20
70807;DHT22;58882;52.170;5.386;2022-11-15T00:21:18;15.30;51.30
70807;DHT22;58882;52.170;5.386;2022-11-15T00:24:31;15.30;51.30
70807;DHT22;58882;52.170;5.386;2022-11-15T00:27:22;15.20;51.40
70807;DHT22;58882;52.170;5.386;2022-11-15T00:30:36;15.20;51.40
70807;DHT22;58882;52.170;5.386;2022-11-15T00:33:27;15.20;51.60
70807;DHT22;58882;52.170;5.386;2022-11-15T00:36:40;15.20;51.70
70807;DHT22;58882;52.170;5.386;2022-11-15T00:39:31;15.20;51.80
70807;DHT22;58882;52.170;5.386;2022-11-15T00:42:44;15.20;51.90
70807;DHT22;58882;52.170;5.386;2022-11-15T00:45:42;15.20;51.90
70807;DHT22;58882;52.170;5.386;2022-11-15T00:48:49;15.20;51.90
70807;DHT22;58882;52.170;5.386;2022-11-15T00:51:47;15.20;52.10
70807;DHT22;58882;52.170;5.386;2022-11-15T00:54:52;15.20;52.10
70807;DHT22;58882;52.170;5.386;2022-11-15T00:57:51;15.30;52.30
70807;DHT22;58882;52.170;5.386;2022-11-15T01:01:04;15.20;52.30
70807;DHT22;58882;52.170;5.386;2022-11-15T01:04:03;15.30;52.50
70807;DHT22;58882;52.170;5.386;2022-11-15T01:07:15;15.20;52.60
70807;DHT22;58882;52.170;5.386;2022-11-15T01:10:14;15.20;52.60
70807;DHT22;58882;52.170;5.386;2022-11-15T01:13:19;15.30;52.70
70807;DHT22;58882;52.170;5.386;2022-11-15T01:16:18;15.20;52.90
70807;DHT22;58882;52.170;5.386;2022-11-15T01:19:23;15.30;53.80
70807;DHT22;58882;52.170;5.386;2022-11-15T01:22:23;15.30;52.80
70807;DHT22;58882;52.170;5.386;2022-11-15T01:25:28;15.30;52.80
70807;DHT22;58882;52.170;5.386;2022-11-15T01:28:30;15.20;53.00
70807;DHT22;58882;52.170;5.386;2022-11-15T01:31:36;15.30;53.20
70807;DHT22;58882;52.170;5.386;2022-11-15T01:34:34;15.20;53.20
70807;DHT22;58882;52.170;5.386;2022-11-15T01:37:46;15.30;53.30
70807;DHT22;58882;52.170;5.386;2022-11-15T01:40:59;15.30;53.50
70807;DHT22;58882;52.170;5.386;2022-11-15T01:47:46;15.30;53.70
70807;DHT22;58882;52.170;5.386;2022-11-15T01:50:46;15.30;53.70
70807;DHT22;58882;52.170;5.386;2022-11-15T01:53:54;15.30;54.60
70807;DHT22;58882;52.170;5.386;2022-11-15T01:56:59;15.30;54.70
70807;DHT22;58882;52.170;5.386;2022-11-15T02:00:01;15.30;53.80
70807;DHT22;58882;52.170;5.386;2022-11-15T02:03:07;15.30;54.00
70807;DHT22;58882;52.170;5.386;2022-11-15T02:06:05;15.30;54.10
70807;DHT22;58882;52.170;5.386;2022-11-15T02:09:11;15.30;54.20
70807;DHT22;58882;52.170;5.386;2022-11-15T02:12:13;15.30;54.30
70807;DHT22;58882;52.170;5.386;2022-11-15T02:15:18;15.30;54.40
70807;DHT22;58882;52.170;5.386;2022-11-15T02:18:28;15.30;54.50
70807;DHT22;58882;52.170;5.386;2022-11-15T02:21:44;15.30;54.60
70807;DHT22;58882;52.170;5.386;2022-11-15T02:28:36;15.40;54.80
70807;DHT22;58882;52.170;5.386;2022-11-15T02:32:02;15.30;55.00
70807;DHT22;58882;52.170;5.386;2022-11-15T02:38:25;15.40;55.20
70807;DHT22;58882;52.170;5.386;2022-11-15T02:42:00;15.40;55.30
70807;DHT22;58882;52.170;5.386;2022-11-15T02:45:04;15.40;55.40
70807;DHT22;58882;52.170;5.386;2022-11-15T02:48:11;15.40;55.50
70807;DHT22;58882;52.170;5.386;2022-11-15T02:51:11;15.40;55.40
70807;DHT22;58882;52.170;5.386;2022-11-15T02:54:21;15.40;56.40
70807;DHT22;58882;52.170;5.386;2022-11-15T02:57:51;15.40;55.60
70807;DHT22;58882;52.170;5.386;2022-11-15T03:11:16;15.50;55.90
70807;DHT22;58882;52.170;5.386;2022-11-15T03:14:32;15.50;55.90
70807;DHT22;58882;52.170;5.386;2022-11-15T03:17:33;15.50;56.00
70807;DHT22;58882;52.170;5.386;2022-11-15T03:20:48;15.50;56.00
70807;DHT22;58882;52.170;5.386;2022-11-15T03:23:47;15.50;56.10
70807;DHT22;58882;52.170;5.386;2022-11-15T03:27:01;15.50;56.20
70807;DHT22;58882;52.170;5.386;2022-11-15T03:30:03;15.60;56.30
70807;DHT22;58882;52.170;5.386;2022-11-15T03:33:09;15.60;56.40
70807;DHT22;58882;52.170;5.386;2022-11-15T03:36:08;15.60;56.50
70807;DHT22;58882;52.170;5.386;2022-11-15T03:39:22;15.60;56.50
70807;DHT22;58882;52.170;5.386;2022-11-15T03:42:20;15.60;57.60
70807;DHT22;58882;52.170;5.386;2022-11-15T03:46:05;15.60;56.60
70807;DHT22;58882;52.170;5.386;2022-11-15T03:49:38;15.60;56.80
70807;DHT22;58882;52.170;5.386;2022-11-15T03:52:34;15.60;56.90
70807;DHT22;58882;52.170;5.386;2022-11-15T03:55:45;15.60;56.90
70807;DHT22;58882;52.170;5.386;2022-11-15T03:58:37;15.60;57.10
70807;DHT22;58882;52.170;5.386;2022-11-15T04:01:49;15.60;57.10
70807;DHT22;58882;52.170;5.386;2022-11-15T04:04:41;15.60;57.30
70807;DHT22;58882;52.170;5.386;2022-11-15T04:07:53;15.60;57.40
70807;DHT22;58882;52.170;5.386;2022-11-15T04:10:48;15.60;57.60
70807;DHT22;58882;52.170;5.386;2022-11-15T04:14:01;15.70;57.40
70807;DHT22;58882;52.170;5.386;2022-11-15T04:16:59;15.70;57.40
70807;DHT22;58882;52.170;5.386;2022-11-15T04:20:19;15.70;57.60
70807;DHT22;58882;52.170;5.386;2022-11-15T04:23:29;15.70;57.70
70807;DHT22;58882;52.170;5.386;2022-11-15T04:26:59;15.70;57.80
70807;DHT22;58882;52.170;5.386;2022-11-15T04:29:51;15.70;57.80
70807;DHT22;58882;52.170;5.386;2022-11-15T04:33:04;15.70;58.00
70807;DHT22;58882;52.170;5.386;2022-11-15T04:35:55;15.80;58.10
70807;DHT22;58882;52.170;5.386;2022-11-15T04:39:26;15.80;58.10
70807;DHT22;58882;52.170;5.386;2022-11-15T04:42:24;15.80;58.20
70807;DHT22;58882;52.170;5.386;2022-11-15T04:45:30;15.80;58.30
70807;DHT22;58882;52.170;5.386;2022-11-15T04:48:21;15.80;58.40
70807;DHT22;58882;52.170;5.386;2022-11-15T04:51:34;15.90;58.40
70807;DHT22;58882;52.170;5.386;2022-11-15T04:54:25;15.90;58.50
70807;DHT22;58882;52.170;5.386;2022-11-15T04:57:38;15.90;58.50
70807;DHT22;58882;52.170;5.386;2022-11-15T05:00:36;15.90;58.50
70807;DHT22;58882;52.170;5.386;2022-11-15T05:03:42;15.90;58.50
70807;DHT22;58882;52.170;5.386;2022-11-15T05:06:59;15.90;58.70
70807;DHT22;58882;52.170;5.386;2022-11-15T05:10:05;16.00;59.60
70807;DHT22;58882;52.170;5.386;2022-11-15T05:13:18;16.00;58.60
70807;DHT22;58882;52.170;5.386;2022-11-15T05:16:16;16.00;58.70
70807;DHT22;58882;52.170;5.386;2022-11-15T05:19:30;16.00;58.80
70807;DHT22;58882;52.170;5.386;2022-11-15T05:22:21;15.90;58.90
70807;DHT22;58882;52.170;5.386;2022-11-15T05:25:36;16.00;59.00
70807;DHT22;58882;52.170;5.386;2022-11-15T05:28:28;16.00;60.10
70807;DHT22;58882;52.170;5.386;2022-11-15T05:31:41;16.00;59.00
70807;DHT22;58882;52.170;5.386;2022-11-15T05:34:40;16.00;59.20
70807;DHT22;58882;52.170;5.386;2022-11-15T05:37:46;16.00;59.10
70807;DHT22;58882;52.170;5.386;2022-11-15T05:40:46;16.00;59.10
70807;DHT22;58882;52.170;5.386;2022-11-15T05:43:51;16.00;59.10
70807;DHT22;58882;52.170;5.386;2022-11-15T05:46:51;16.00;59.20
70807;DHT22;58882;52.170;5.386;2022-11-15T05:49:58;16.00;59.30
70807;DHT22;58882;52.170;5.386;2022-11-15T05:52:56;16.10;59.50
70807;DHT22;58882;52.170;5.386;2022-11-15T05:56:04;16.00;59.40
70807;DHT22;58882;52.170;5.386;2022-11-15T05:59:04;16.00;59.50
70807;DHT22;58882;52.170;5.386;2022-11-15T06:02:16;16.00;59.50
70807;DHT22;58882;52.170;5.386;2022-11-15T06:05:07;16.00;59.60
70807;DHT22;58882;52.170;5.386;2022-11-15T06:08:20;16.00;59.60
70807;DHT22;58882;52.170;5.386;2022-11-15T06:11:18;16.10;60.60
70807;DHT22;58882;52.170;5.386;2022-11-15T06:14:31;16.10;59.80
70807;DHT22;58882;52.170;5.386;2022-11-15T06:17:22;16.10;59.80
70807;DHT22;58882;52.170;5.386;2022-11-15T06:20:36;16.10;59.80
70807;DHT22;58882;52.170;5.386;2022-11-15T06:23:28;16.10;59.80
70807;DHT22;58882;52.170;5.386;2022-11-15T06:26:43;16.10;59.80
70807;DHT22;58882;52.170;5.386;2022-11-15T06:29:42;16.10;59.90
70807;DHT22;58882;52.170;5.386;2022-11-15T06:33:01;16.20;59.90
70807;DHT22;58882;52.170;5.386;2022-11-15T06:35:53;16.20;60.00
70807;DHT22;58882;52.170;5.386;2022-11-15T06:39:12;16.20;59.90
70807;DHT22;58882;52.170;5.386;2022-11-15T06:42:24;16.20;59.90
70807;DHT22;58882;52.170;5.386;2022-11-15T06:45:22;16.20;59.90
70807;DHT22;58882;52.170;5.386;2022-11-15T06:48:27;16.20;59.90
70807;DHT22;58882;52.170;5.386;2022-11-15T06:51:27;16.30;59.90
70807;DHT22;58882;52.170;5.386;2022-11-15T06:54:32;16.30;59.90
70807;DHT22;58882;52.170;5.386;2022-11-15T06:57:30;16.30;59.90
70807;DHT22;58882;52.170;5.386;2022-11-15T07:00:36;16.30;59.90
70807;DHT22;58882;52.170;5.386;2022-11-15T07:03:35;16.30;59.90
70807;DHT22;58882;52.170;5.386;2022-11-15T07:06:48;16.40;59.90
70807;DHT22;58882;52.170;5.386;2022-11-15T07:09:46;16.40;60.10
70807;DHT22;58882;52.170;5.386;2022-11-15T07:12:54;16.40;60.10
70807;DHT22;58882;52.170;5.386;2022-11-15T07:15:54;16.50;60.00
70807;DHT22;58882;52.170;5.386;2022-11-15T07:19:06;16.60;59.70
70807;DHT22;58882;52.170;5.386;2022-11-15T07:21:57;16.70;59.40
70807;DHT22;58882;52.170;5.386;2022-11-15T07:25:09;16.70;59.10
70807;DHT22;58882;52.170;5.386;2022-11-15T07:28:02;16.80;59.00
70807;DHT22;58882;52.170;5.386;2022-11-15T07:31:14;16.90;58.80
70807;DHT22;58882;52.170;5.386;2022-11-15T07:34:05;17.00;58.50
70807;DHT22;58882;52.170;5.386;2022-11-15T07:37:18;17.00;58.30
70807;DHT22;58882;52.170;5.386;2022-11-15T07:40:09;17.10;58.10
70807;DHT22;58882;52.170;5.386;2022-11-15T07:43:21;17.20;58.00
70807;DHT22;58882;52.170;5.386;2022-11-15T07:46:20;17.20;57.80
70807;DHT22;58882;52.170;5.386;2022-11-15T07:49:26;17.30;57.70
70807;DHT22;58882;52.170;5.386;2022-11-15T07:52:24;17.30;57.50
70807;DHT22;58882;52.170;5.386;2022-11-15T07:55:30;17.40;57.40
70807;DHT22;58882;52.170;5.386;2022-11-15T07:58:28;17.40;57.30
70807;DHT22;58882;52.170;5.386;2022-11-15T08:01:41;17.50;57.10
70807;DHT22;58882;52.170;5.386;2022-11-15T08:04:39;17.50;57.00
70807;DHT22;58882;52.170;5.386;2022-11-15T08:07:44;17.60;56.90
70807;DHT22;58882;52.170;5.386;2022-11-15T08:10:43;17.60;56.70
70807;DHT22;58882;52.170;5.386;2022-11-15T08:13:49;17.70;56.70
70807;DHT22;58882;52.170;5.386;2022-11-15T08:16:48;17.70;56.60
70807;DHT22;58882;52.170;5.386;2022-11-15T08:20:00;17.70;56.40
70807;DHT22;58882;52.170;5.386;2022-11-15T08:22:52;17.80;56.40
70807;DHT22;58882;52.170;5.386;2022-11-15T08:26:04;17.80;56.30
70807;DHT22;58882;52.170;5.386;2022-11-15T08:28:56;17.80;56.10
70807;DHT22;58882;52.170;5.386;2022-11-15T08:32:10;17.90;56.10
70807;DHT22;58882;52.170;5.386;2022-11-15T08:35:03;17.90;55.80
70807;DHT22;58882;52.170;5.386;2022-11-15T08:38:15;17.90;55.80
70807;DHT22;58882;52.170;5.386;2022-11-15T08:41:07;17.90;55.70
70807;DHT22;58882;52.170;5.386;2022-11-15T08:44:22;17.90;55.50
70807;DHT22;58882;52.170;5.386;2022-11-15T08:47:15;18.00;55.40
70807;DHT22;58882;52.170;5.386;2022-11-15T08:50:27;18.00;55.20
70807;DHT22;58882;52.170;5.386;2022-11-15T08:53:25;18.00;55.20
70807;DHT22;58882;52.170;5.386;2022-11-15T08:56:31;18.10;55.00
70807;DHT22;58882;52.170;5.386;2022-11-15T08:59:29;18.10;54.90
70807;DHT22;58882;52.170;5.386;2022-11-15T09:02:37;18.10;54.80
70807;DHT22;58882;52.170;5.386;2022-11-15T09:05:36;18.10;54.90
70807;DHT22;58882;52.170;5.386;2022-11-15T09:08:42;18.20;54.80
70807;DHT22;58882;52.170;5.386;2022-11-15T09:11:40;18.20;54.60
70807;DHT22;58882;52.170;5.386;2022-11-15T09:14:46;18.20;54.60
70807;DHT22;58882;52.170;5.386;2022-11-15T09:17:46;18.30;54.50
70807;DHT22;58882;52.170;5.386;2022-11-15T09:20:58;18.40;54.30
70807;DHT22;58882;52.170;5.386;2022-11-15T09:23:57;18.40;54.20
70807;DHT22;58882;52.170;5.386;2022-11-15T09:27:03;18.50;54.00
70807;DHT22;58882;52.170;5.386;2022-11-15T09:30:01;18.50;53.90
70807;DHT22;58882;52.170;5.386;2022-11-15T09:33:14;18.60;53.80
70807;DHT22;58882;52.170;5.386;2022-11-15T09:36:07;18.60;53.90
70807;DHT22;58882;52.170;5.386;2022-11-15T09:39:20;18.60;54.20
70807;DHT22;58882;52.170;5.386;2022-11-15T09:49:35;18.50;58.20
70807;DHT22;58882;52.170;5.386;2022-11-15T09:52:19;18.50;58.80
70807;DHT22;58882;52.170;5.386;2022-11-15T09:55:15;18.50;60.00
70807;DHT22;58882;52.170;5.386;2022-11-15T10:01:23;18.50;61.80
70807;DHT22;58882;52.170;5.386;2022-11-15T10:04:09;18.60;62.20
70807;DHT22;58882;52.170;5.386;2022-11-15T10:07:10;18.70;62.40
70807;DHT22;58882;52.170;5.386;2022-11-15T10:13:01;18.70;63.00
70807;DHT22;58882;52.170;5.386;2022-11-15T10:15:56;18.70;63.00
70807;DHT22;58882;52.170;5.386;2022-11-15T10:24:43;18.60;63.40
70807;DHT22;58882;52.170;5.386;2022-11-15T10:27:39;18.60;63.40
70807;DHT22;58882;52.170;5.386;2022-11-15T10:30:16;18.50;63.40
70807;DHT22;58882;52.170;5.386;2022-11-15T10:38:56;18.50;63.80
70807;DHT22;58882;52.170;5.386;2022-11-15T10:41:51;18.50;64.00
70807;DHT22;58882;52.170;5.386;2022-11-15T10:44:42;18.50;64.10
70807;DHT22;58882;52.170;5.386;2022-11-15T10:47:29;18.50;64.20
70807;DHT22;58882;52.170;5.386;2022-11-15T10:50:31;18.50;63.90
70807;DHT22;58882;52.170;5.386;2022-11-15T10:53:32;18.50;64.00
70807;DHT22;58882;52.170;5.386;2022-11-15T10:56:14;18.50;64.10
70807;DHT22;58882;52.170;5.386;2022-11-15T10:59:02;18.50;64.20
70807;DHT22;58882;52.170;5.386;2022-11-15T11:01:45;18.50;64.40
70807;DHT22;58882;52.170;5.386;2022-11-15T11:04:49;18.50;64.10
70807;DHT22;58882;52.170;5.386;2022-11-15T11:07:32;18.50;64.30
70807;DHT22;58882;52.170;5.386;2022-11-15T11:10:21;18.50;64.10
70807;DHT22;58882;52.170;5.386;2022-11-15T11:13:29;18.50;64.20
70807;DHT22;58882;52.170;5.386;2022-11-15T11:16:32;18.50;64.30
70807;DHT22;58882;52.170;5.386;2022-11-15T11:19:31;18.50;64.40
70807;DHT22;58882;52.170;5.386;2022-11-15T11:25:30;18.50;64.40
70807;DHT22;58882;52.170;5.386;2022-11-15T11:28:53;18.50;64.40
70807;DHT22;58882;52.170;5.386;2022-11-15T11:31:36;18.50;64.40
70807;DHT22;58882;52.170;5.386;2022-11-15T11:42:53;18.50;64.50
70807;DHT22;58882;52.170;5.386;2022-11-15T11:45:44;18.50;64.30
70807;DHT22;58882;52.170;5.386;2022-11-15T11:48:49;18.50;64.40
70807;DHT22;58882;52.170;5.386;2022-11-15T11:51:43;18.50;64.60
70807;DHT22;58882;52.170;5.386;2022-11-15T11:57:35;18.50;64.80
70807;DHT22;58882;52.170;5.386;2022-11-15T12:00:23;18.50;64.80
70807;DHT22;58882;52.170;5.386;2022-11-15T12:03:40;18.50;65.00
70807;DHT22;58882;52.170;5.386;2022-11-15T12:15:53;18.70;64.60
70807;DHT22;58882;52.170;5.386;2022-11-15T12:18:46;18.70;64.50
70807;DHT22;58882;52.170;5.386;2022-11-15T12:21:36;18.80;64.40
70807;DHT22;58882;52.170;5.386;2022-11-15T12:27:18;18.90;64.30
70807;DHT22;58882;52.170;5.386;2022-11-15T12:30:23;18.90;64.30
70807;DHT22;58882;52.170;5.386;2022-11-15T12:36:05;18.90;65.30
70807;DHT22;58882;52.170;5.386;2022-11-15T12:39:07;18.90;64.40
70807;DHT22;58882;52.170;5.386;2022-11-15T12:47:34;18.90;64.40
70807;DHT22;58882;52.170;5.386;2022-11-15T12:50:14;19.00;64.40
70807;DHT22;58882;52.170;5.386;2022-11-15T12:53:30;19.00;64.20
70807;DHT22;58882;52.170;5.386;2022-11-15T12:59:00;19.00;64.20
70807;DHT22;58882;52.170;5.386;2022-11-15T13:04:30;19.00;64.30
70807;DHT22;58882;52.170;5.386;2022-11-15T13:10:33;19.00;64.40
70807;DHT22;58882;52.170;5.386;2022-11-15T13:13:44;19.00;64.40
70807;DHT22;58882;52.170;5.386;2022-11-15T13:16:33;19.00;64.50
70807;DHT22;58882;52.170;5.386;2022-11-15T13:19:14;19.00;64.30
70807;DHT22;58882;52.170;5.386;2022-11-15T13:22:06;19.00;64.30
70807;DHT22;58882;52.170;5.386;2022-11-15T13:25:16;19.00;64.40
70807;DHT22;58882;52.170;5.386;2022-11-15T13:31:00;18.90;64.40
70807;DHT22;58882;52.170;5.386;2022-11-15T13:33:59;18.90;64.30
70807;DHT22;58882;52.170;5.386;2022-11-15T13:36:34;18.80;64.40
70807;DHT22;58882;52.170;5.386;2022-11-15T13:39:33;18.90;64.50
70807;DHT22;58882;52.170;5.386;2022-11-15T13:42:28;18.80;64.50
70807;DHT22;58882;52.170;5.386;2022-11-15T13:45:11;18.80;64.40
70807;DHT22;58882;52.170;5.386;2022-11-15T13:48:03;18.80;64.20
70807;DHT22;58882;52.170;5.386;2022-11-15T13:50:43;18.80;64.10
70807;DHT22;58882;52.170;5.386;2022-11-15T13:53:32;18.80;63.90
70807;DHT22;58882;52.170;5.386;2022-11-15T13:56:15;18.70;63.80
70807;DHT22;58882;52.170;5.386;2022-11-15T13:58:56;18.70;63.90
70807;DHT22;58882;52.170;5.386;2022-11-15T14:01:50;18.70;63.90
70807;DHT22;58882;52.170;5.386;2022-11-15T14:04:26;18.70;64.10
70807;DHT22;58882;52.170;5.386;2022-11-15T14:07:23;18.70;64.90
70807;DHT22;58882;52.170;5.386;2022-11-15T14:09:57;18.60;63.70
70807;DHT22;58882;52.170;5.386;2022-11-15T14:12:50;18.60;63.70
70807;DHT22;58882;52.170;5.386;2022-11-15T14:15:36;18.60;63.50
70807;DHT22;58882;52.170;5.386;2022-11-15T14:18:47;18.60;63.50
70807;DHT22;58882;52.170;5.386;2022-11-15T14:22:07;18.60;63.50
70807;DHT22;58882;52.170;5.386;2022-11-15T14:31:12;18.50;62.70
70807;DHT22;58882;52.170;5.386;2022-11-15T14:33:48;18.50;62.00
70807;DHT22;58882;52.170;5.386;2022-11-15T14:36:42;18.50;62.50
70807;DHT22;58882;52.170;5.386;2022-11-15T14:39:15;18.40;62.10
70807;DHT22;58882;52.170;5.386;2022-11-15T14:42:11;18.40;61.60
70807;DHT22;58882;52.170;5.386;2022-11-15T14:44:51;18.40;61.10
70807;DHT22;58882;52.170;5.386;2022-11-15T14:47:38;18.40;61.00
70807;DHT22;58882;52.170;5.386;2022-11-15T14:50:21;18.40;61.10
70807;DHT22;58882;52.170;5.386;2022-11-15T14:53:16;18.40;61.00
70807;DHT22;58882;52.170;5.386;2022-11-15T14:55:57;18.40;61.30
70807;DHT22;58882;52.170;5.386;2022-11-15T14:58:44;18.30;60.70
70807;DHT22;58882;52.170;5.386;2022-11-15T15:01:26;18.30;59.20
70807;DHT22;58882;52.170;5.386;2022-11-15T15:04:21;18.40;60.00
70807;DHT22;58882;52.170;5.386;2022-11-15T15:07:01;18.30;60.20
70807;DHT22;58882;52.170;5.386;2022-11-15T15:09:48;18.40;59.70
70807;DHT22;58882;52.170;5.386;2022-11-15T15:12:43;18.40;58.30
70807;DHT22;58882;52.170;5.386;2022-11-15T15:15:37;18.40;59.00
70807;DHT22;58882;52.170;5.386;2022-11-15T15:18:17;18.40;58.80
70807;DHT22;58882;52.170;5.386;2022-11-15T15:21:22;18.40;58.50
70807;DHT22;58882;52.170;5.386;2022-11-15T15:24:14;18.30;57.80
70807;DHT22;58882;52.170;5.386;2022-11-15T15:27:01;18.30;57.10
70807;DHT22;58882;52.170;5.386;2022-11-15T15:29:41;18.30;57.20
70807;DHT22;58882;52.170;5.386;2022-11-15T15:32:28;18.30;57.30
70807;DHT22;58882;52.170;5.386;2022-11-15T15:35:10;18.30;57.10
70807;DHT22;58882;52.170;5.386;2022-11-15T15:37:58;18.30;57.00
70807;DHT22;58882;52.170;5.386;2022-11-15T15:40:39;18.30;56.30
70807;DHT22;58882;52.170;5.386;2022-11-15T15:43:32;18.30;55.90
70807;DHT22;58882;52.170;5.386;2022-11-15T15:46:17;18.40;56.10
70807;DHT22;58882;52.170;5.386;2022-11-15T15:49:05;18.30;55.70
70807;DHT22;58882;52.170;5.386;2022-11-15T15:51:59;18.30;55.30
70807;DHT22;58882;52.170;5.386;2022-11-15T15:54:39;18.30;55.10
70807;DHT22;58882;52.170;5.386;2022-11-15T15:57:34;18.30;54.90
70807;DHT22;58882;52.170;5.386;2022-11-15T16:00:14;18.30;54.80
70807;DHT22;58882;52.170;5.386;2022-11-15T16:03:01;18.30;54.90
70807;DHT22;58882;52.170;5.386;2022-11-15T16:05:41;18.30;54.80
70807;DHT22;58882;52.170;5.386;2022-11-15T16:08:28;18.30;54.80
70807;DHT22;58882;52.170;5.386;2022-11-15T16:11:29;18.30;54.50
70807;DHT22;58882;52.170;5.386;2022-11-15T16:14:22;18.30;54.40
70807;DHT22;58882;52.170;5.386;2022-11-15T16:17:03;18.30;54.50
70807;DHT22;58882;52.170;5.386;2022-11-15T16:19:50;18.30;54.30
70807;DHT22;58882;52.170;5.386;2022-11-15T16:22:23;18.20;54.10
70807;DHT22;58882;52.170;5.386;2022-11-15T16:25:16;18.20;54.00
70807;DHT22;58882;52.170;5.386;2022-11-15T16:27:57;18.20;54.10
70807;DHT22;58882;52.170;5.386;2022-11-15T16:30:44;18.20;53.80
70807;DHT22;58882;52.170;5.386;2022-11-15T16:33:29;18.20;53.70
70807;DHT22;58882;52.170;5.386;2022-11-15T16:36:25;18.10;53.80
70807;DHT22;58882;52.170;5.386;2022-11-15T16:39:03;18.10;53.90
70807;DHT22;58882;52.170;5.386;2022-11-15T16:41:57;18.10;53.90
70807;DHT22;58882;52.170;5.386;2022-11-15T16:44:37;18.20;54.00
70807;DHT22;58882;52.170;5.386;2022-11-15T16:47:24;18.10;53.80
70807;DHT22;58882;52.170;5.386;2022-11-15T16:49:57;18.10;53.70
70807;DHT22;58882;52.170;5.386;2022-11-15T16:52:51;18.10;53.70
70807;DHT22;58882;52.170;5.386;2022-11-15T16:55:31;18.10;53.80
70807;DHT22;58882;52.170;5.386;2022-11-15T16:58:18;18.10;53.60
70807;DHT22;58882;52.170;5.386;2022-11-15T17:00:52;18.00;53.50
70807;DHT22;58882;52.170;5.386;2022-11-15T17:03:46;18.10;53.60
70807;DHT22;58882;52.170;5.386;2022-11-15T17:06:20;18.00;53.50
70807;DHT22;58882;52.170;5.386;2022-11-15T17:09:21;18.00;53.60
70807;DHT22;58882;52.170;5.386;2022-11-15T17:12:02;18.00;53.60
70807;DHT22;58882;52.170;5.386;2022-11-15T17:14:49;18.00;53.70
70807;DHT22;58882;52.170;5.386;2022-11-15T17:17:29;18.00;53.60
70807;DHT22;58882;52.170;5.386;2022-11-15T17:20:17;18.00;53.70
70807;DHT22;58882;52.170;5.386;2022-11-15T17:22:58;18.00;54.10
70807;DHT22;58882;52.170;5.386;2022-11-15T17:25:58;18.00;53.80
70807;DHT22;58882;52.170;5.386;2022-11-15T17:28:59;18.00;53.80
70807;DHT22;58882;52.170;5.386;2022-11-15T17:31:56;18.00;54.00
70807;DHT22;58882;52.170;5.386;2022-11-15T17:34:36;18.00;54.10
70807;DHT22;58882;52.170;5.386;2022-11-15T17:37:30;18.00;54.10
70807;DHT22;58882;52.170;5.386;2022-11-15T17:40:03;17.90;54.10
70807;DHT22;58882;52.170;5.386;2022-11-15T17:42:56;17.90;54.30
70807;DHT22;58882;52.170;5.386;2022-11-15T17:45:39;17.90;54.40
70807;DHT22;58882;52.170;5.386;2022-11-15T17:48:27;17.90;54.40
70807;DHT22;58882;52.170;5.386;2022-11-15T17:51:04;17.90;54.60
70807;DHT22;58882;52.170;5.386;2022-11-15T17:53:59;17.90;54.70
70807;DHT22;58882;52.170;5.386;2022-11-15T17:56:39;17.90;54.80
70807;DHT22;58882;52.170;5.386;2022-11-15T17:59:26;17.90;55.10
70807;DHT22;58882;52.170;5.386;2022-11-15T18:02:06;17.90;54.90
70807;DHT22;58882;52.170;5.386;2022-11-15T18:04:53;17.90;55.00
70807;DHT22;58882;52.170;5.386;2022-11-15T18:07:33;17.90;55.20
70807;DHT22;58882;52.170;5.386;2022-11-15T18:10:20;17.90;55.20
70807;DHT22;58882;52.170;5.386;2022-11-15T18:13:00;17.90;55.30
70807;DHT22;58882;52.170;5.386;2022-11-15T18:15:53;17.80;55.50
70807;DHT22;58882;52.170;5.386;2022-11-15T18:18:34;17.80;55.60
70807;DHT22;58882;52.170;5.386;2022-11-15T18:21:24;17.80;55.70
70807;DHT22;58882;52.170;5.386;2022-11-15T18:24:04;17.80;55.90
70807;DHT22;58882;52.170;5.386;2022-11-15T18:26:58;17.80;55.90
70807;DHT22;58882;52.170;5.386;2022-11-15T18:29:31;17.90;56.00
70807;DHT22;58882;52.170;5.386;2022-11-15T18:32:24;17.80;56.00
70807;DHT22;58882;52.170;5.386;2022-11-15T18:35:05;17.90;56.00
70807;DHT22;58882;52.170;5.386;2022-11-15T18:37:53;17.90;55.90
70807;DHT22;58882;52.170;5.386;2022-11-15T18:40:28;17.90;56.10
70807;DHT22;58882;52.170;5.386;2022-11-15T18:43:22;17.90;56.10
70807;DHT22;58882;52.170;5.386;2022-11-15T18:45:55;17.90;56.20
70807;DHT22;58882;52.170;5.386;2022-11-15T18:48:56;17.90;56.30
70807;DHT22;58882;52.170;5.386;2022-11-15T18:51:30;17.90;56.30
70807;DHT22;58882;52.170;5.386;2022-11-15T18:54:27;17.90;56.30
70807;DHT22;58882;52.170;5.386;2022-11-15T18:57:04;17.90;56.30
70807;DHT22;58882;52.170;5.386;2022-11-15T18:59:57;17.90;56.40
70807;DHT22;58882;52.170;5.386;2022-11-15T19:02:31;17.90;56.30
70807;DHT22;58882;52.170;5.386;2022-11-15T19:05:24;17.90;56.30
70807;DHT22;58882;52.170;5.386;2022-11-15T19:07:58;17.90;56.30
70807;DHT22;58882;52.170;5.386;2022-11-15T19:10:51;17.90;56.30
70807;DHT22;58882;52.170;5.386;2022-11-15T19:13:32;17.90;56.40
70807;DHT22;58882;52.170;5.386;2022-11-15T19:16:20;17.90;56.50
70807;DHT22;58882;52.170;5.386;2022-11-15T19:19:01;17.90;56.60
70807;DHT22;58882;52.170;5.386;2022-11-15T19:21:48;17.90;56.60
70807;DHT22;58882;52.170;5.386;2022-11-15T19:24:28;17.90;56.70
70807;DHT22;58882;52.170;5.386;2022-11-15T19:27:15;17.90;56.70
70807;DHT22;58882;52.170;5.386;2022-11-15T19:29:55;17.80;56.70
70807;DHT22;58882;52.170;5.386;2022-11-15T19:32:49;17.90;56.80
70807;DHT22;58882;52.170;5.386;2022-11-15T19:35:29;17.90;56.90
70807;DHT22;58882;52.170;5.386;2022-11-15T19:38:16;17.90;56.90
70807;DHT22;58882;52.170;5.386;2022-11-15T19:41:03;17.80;56.80
70807;DHT22;58882;52.170;5.386;2022-11-15T19:43:58;17.90;56.80
70807;DHT22;58882;52.170;5.386;2022-11-15T19:46:38;17.80;56.80
70807;DHT22;58882;52.170;5.386;2022-11-15T19:49:25;17.80;56.90
70807;DHT22;58882;52.170;5.386;2022-11-15T19:52:05;17.80;57.20
70807;DHT22;58882;52.170;5.386;2022-11-15T19:54:52;17.90;57.10
70807;DHT22;58882;52.170;5.386;2022-11-15T19:57:32;17.80;57.00
70807;DHT22;58882;52.170;5.386;2022-11-15T20:00:19;17.90;57.10
70807;DHT22;58882;52.170;5.386;2022-11-15T20:02:59;17.80;57.10
70807;DHT22;58882;52.170;5.386;2022-11-15T20:05:46;17.90;57.20
70807;DHT22;58882;52.170;5.386;2022-11-15T20:08:26;17.80;57.30
70807;DHT22;58882;52.170;5.386;2022-11-15T20:11:13;17.80;57.40